< Cyclone 200407 2004 Season Cyclone 200409 >
Cyclone 200408 (FAY)
General InformationDetailed Track InformationTrack Information on Google MapsList of All Images || ResourceGoogle EarthGE AnimationAtom FeedGeoJSON
Detalied Best Track Wind (Time Zone = UTC)
Year Month Day Hour Lat. Long. Wind (kt) Gust (kt) Direc. of Major Storm Axis Radius of Major Storm Axis (nm) Radius of Minor Storm Axis (nm) Direc. of Major Gale Axis Radius of Major Gale Axis (nm) Radius of Minor Gale Axis (nm) Image
2004 3 12 00 -10.9 146.0 15 -1 symmetric - - symmetric - - Image
2004 3 12 06 -10.9 145.0 15 -1 symmetric - - symmetric - - Image
2004 3 12 12 -10.9 143.5 15 -1 symmetric - - symmetric - - Image
2004 3 12 18 -10.9 143.0 15 -1 symmetric - - symmetric - - Image
2004 3 13 00 -10.9 142.0 15 -1 symmetric - - symmetric - - Image
2004 3 13 03 -10.4 140.7 15 -1 symmetric - - symmetric - - Image
2004 3 13 06 -10.4 140.0 15 -1 symmetric - - symmetric - - Image
2004 3 13 12 -10.4 139.0 15 -1 symmetric - - symmetric - - Image
2004 3 13 18 -10.4 137.5 15 -1 symmetric - - symmetric - - Image
2004 3 14 00 -10.4 136.5 15 -1 symmetric - - symmetric - - Image
2004 3 14 03 -10.4 136.3 15 -1 symmetric - - symmetric - - Image
2004 3 14 06 -10.5 136.2 20 -1 symmetric - - symmetric - - Image
2004 3 14 12 -10.5 135.2 20 -1 symmetric - - symmetric - - Image
2004 3 14 18 -10.5 134.8 20 -1 symmetric - - symmetric - - Image
2004 3 14 21 -10.4 134.5 20 -1 symmetric - - symmetric - - Image
2004 3 15 00 -10.5 134.0 25 -1 symmetric - - symmetric - - Image
2004 3 15 03 -10.5 133.5 25 -1 symmetric - - symmetric - - Image
2004 3 15 06 -10.6 132.8 25 -1 symmetric - - symmetric - - Image
2004 3 15 09 -10.6 131.9 25 -1 symmetric - - symmetric - - Image
2004 3 15 12 -10.6 131.3 25 -1 symmetric - - symmetric - - Image
2004 3 15 15 -10.6 130.8 25 -1 symmetric - - symmetric - - Image
2004 3 15 18 -10.8 130.3 30 -1 symmetric - - symmetric - - Image
2004 3 15 21 -11.0 129.9 30 -1 symmetric - - symmetric - - Image
2004 3 16 00 -11.3 129.5 30 -1 symmetric - - symmetric - - Image
2004 3 16 03 -11.5 129.1 30 -1 symmetric - - symmetric - - Image
2004 3 16 06 -11.5 128.5 30 -1 symmetric - - symmetric - - Image
2004 3 16 09 -11.5 128.2 40 -1 symmetric - - symmetric - - Image
2004 3 16 12 -11.6 127.9 40 -1 symmetric - - symmetric - - Image
2004 3 16 15 -11.7 127.9 40 -1 symmetric - - symmetric - - Image
2004 3 16 18 -11.8 127.8 40 -1 symmetric - - symmetric - - Image
2004 3 16 21 -11.9 127.8 40 -1 symmetric - - symmetric - - Image
2004 3 17 00 -12.0 127.8 40 -1 symmetric - - symmetric - - Image
2004 3 17 03 -12.2 127.6 40 -1 symmetric - - symmetric - - Image
2004 3 17 06 -12.3 127.4 40 -1 symmetric - - symmetric - - Image
2004 3 17 09 -12.4 127.3 40 -1 symmetric - - symmetric - - Image
2004 3 17 12 -12.6 127.2 40 -1 symmetric - - symmetric - - Image
2004 3 17 15 -12.6 127.2 50 -1 symmetric - - symmetric - - Image
2004 3 17 18 -12.7 127.2 50 -1 symmetric - - symmetric - - Image
2004 3 17 21 -12.9 127.1 60 -1 symmetric - - symmetric - - Image
2004 3 18 00 -13.0 126.9 60 -1 symmetric - - symmetric - - Image
2004 3 18 03 -13.0 126.8 60 -1 symmetric - - symmetric - - Image
2004 3 18 06 -13.0 126.8 60 -1 symmetric - - symmetric - - Image
2004 3 18 09 -13.1 126.7 60 -1 symmetric - - symmetric - - Image
2004 3 18 12 -13.1 126.6 70 -1 symmetric - - symmetric - - Image
2004 3 18 15 -13.0 126.3 70 -1 symmetric - - symmetric - - Image
2004 3 18 18 -12.8 126.1 70 -1 symmetric - - symmetric - - Image
2004 3 18 21 -12.7 125.8 70 -1 symmetric - - symmetric - - Image
2004 3 19 00 -12.7 125.5 70 -1 symmetric - - symmetric - - Image
2004 3 19 03 -12.7 125.4 70 -1 symmetric - - symmetric - - Image
2004 3 19 06 -12.8 125.4 80 -1 symmetric - - symmetric - - Image
2004 3 19 09 -12.8 125.3 80 -1 symmetric - - symmetric - - Image
2004 3 19 12 -12.7 125.1 90 -1 symmetric - - symmetric - - Image
2004 3 19 15 -12.7 124.8 90 -1 symmetric - - symmetric - - Image
2004 3 19 18 -12.7 124.9 90 125 symmetric - - symmetric - - Image
2004 3 20 00 -12.8 124.8 90 -1 symmetric - - symmetric - - Image
2004 3 20 06 -13.0 124.6 90 -1 symmetric - - symmetric - - Image
2004 3 20 12 -13.2 124.2 90 -1 symmetric - - symmetric - - Image
2004 3 20 18 -13.5 123.6 90 -1 symmetric - - symmetric - - Image
2004 3 21 00 -13.2 123.0 95 135 symmetric - - symmetric - - Image
2004 3 21 03 -13.4 122.9 100 140 symmetric - - symmetric - - Image
2004 3 21 06 -13.5 122.8 115 160 symmetric - - symmetric - - Image
2004 3 21 12 -13.9 122.2 115 -1 symmetric - - symmetric - - Image
2004 3 21 18 -13.9 121.7 115 -1 symmetric - - symmetric - - Image
2004 3 22 00 -13.8 121.2 100 140 symmetric - - symmetric - - Image
2004 3 22 06 -13.8 120.9 90 125 symmetric - - symmetric - - Image
2004 3 22 12 -14.1 120.9 100 140 symmetric - - symmetric - - Image
2004 3 22 18 -14.3 120.5 100 140 symmetric - - symmetric - - Image
2004 3 22 21 -14.2 120.4 95 130 symmetric - - symmetric - - Image
2004 3 23 00 -14.1 120.5 90 125 symmetric - - symmetric - - Image
2004 3 23 03 -14.1 120.6 80 110 symmetric - - symmetric - - Image
2004 3 23 06 -14.2 120.7 80 110 symmetric - - symmetric - - Image
2004 3 23 12 -14.2 121.2 70 100 symmetric - - symmetric - - Image
2004 3 23 18 -15.1 121.4 60 85 symmetric - - symmetric - - Image
2004 3 24 00 -15.4 121.6 60 85 symmetric - - symmetric - - Image
2004 3 24 06 -15.8 121.6 70 100 symmetric - - symmetric - - Image
2004 3 24 12 -16.2 121.7 75 105 symmetric - - symmetric - - Image
2004 3 24 15 -16.4 121.7 75 105 symmetric - - symmetric - - Image
2004 3 24 18 -16.6 121.7 80 110 symmetric - - symmetric - - Image
2004 3 24 21 -16.9 121.7 80 110 symmetric - - symmetric - - Image
2004 3 25 00 -17.0 121.6 80 110 symmetric - - symmetric - - Image
2004 3 25 03 -17.3 121.5 80 110 symmetric - - symmetric - - Image
2004 3 25 06 -17.6 121.3 75 105 symmetric - - symmetric - - Image
2004 3 25 09 -17.8 121.0 75 105 symmetric - - symmetric - - Image
2004 3 25 12 -17.8 120.8 75 105 symmetric - - symmetric - - Image
2004 3 25 15 -17.9 120.6 75 105 symmetric - - symmetric - - Image
2004 3 25 18 -17.9 120.4 75 105 symmetric - - symmetric - - Image
2004 3 25 21 -18.0 120.3 75 105 symmetric - - symmetric - - Image
2004 3 26 00 -18.0 120.2 80 110 symmetric - - symmetric - - Image
2004 3 26 03 -18.2 120.2 85 115 symmetric - - symmetric - - Image
2004 3 26 06 -18.4 120.0 60 125 symmetric - - symmetric - - Image
2004 3 26 09 -18.7 120.0 95 135 symmetric - - symmetric - - Image
2004 3 26 12 -18.8 119.9 100 140 symmetric - - symmetric - - Image
2004 3 26 15 -19.0 120.0 100 140 symmetric - - symmetric - - Image
2004 3 26 18 -19.2 120.0 95 135 symmetric - - symmetric - - Image
2004 3 26 21 -19.4 120.1 95 135 symmetric - - symmetric - - Image
2004 3 27 00 -19.7 120.1 90 125 symmetric - - symmetric - - Image
2004 3 27 03 -20.1 120.1 90 125 symmetric - - symmetric - - Image
2004 3 27 06 -20.4 120.1 85 120 symmetric - - symmetric - - Image
2004 3 27 09 -20.6 120.2 85 120 symmetric - - symmetric - - Image
2004 3 27 12 -20.9 120.3 80 110 symmetric - - symmetric - - Image
2004 3 27 15 -20.9 120.5 70 100 symmetric - - symmetric - - Image
2004 3 27 18 -21.1 120.6 60 85 symmetric - - symmetric - - Image
2004 3 28 00 -21.3 120.8 50 70 symmetric - - symmetric - - Image
2004 3 28 06 -21.4 120.9 35 50 symmetric - - symmetric - - Image
2004 3 28 12 -21.4 120.9 25 40 symmetric - - symmetric - - Image
< Cyclone 200407 2004 Season Cyclone 200409 >

Help